sensor_id;sensor_type;location;lat;lon;timestamp;pressure;altitude;pressure_sealevel;temperature;humidity
53262;BME280;39658;51.090;-1.786;2023-06-26T00:02:13;102023.16;;;14.18;100.00
53262;BME280;39658;51.090;-1.786;2023-06-26T00:04:43;102043.59;;;14.16;100.00
53262;BME280;39658;51.090;-1.786;2023-06-26T00:07:10;102038.09;;;14.05;100.00
53262;BME280;39658;51.090;-1.786;2023-06-26T00:09:37;102049.72;;;14.03;100.00
53262;BME280;39658;51.090;-1.786;2023-06-26T00:12:05;102062.72;;;14.07;100.00
53262;BME280;39658;51.090;-1.786;2023-06-26T00:14:33;102062.06;;;14.04;100.00
53262;BME280;39658;51.090;-1.786;2023-06-26T00:17:00;102064.03;;;14.00;100.00
53262;BME280;39658;51.090;-1.786;2023-06-26T00:19:26;102070.72;;;13.91;100.00
53262;BME280;39658;51.090;-1.786;2023-06-26T00:21:53;102052.72;;;13.82;100.00
53262;BME280;39658;51.090;-1.786;2023-06-26T00:24:20;102025.63;;;13.77;100.00
53262;BME280;39658;51.090;-1.786;2023-06-26T00:26:47;101996.75;;;13.72;100.00
53262;BME280;39658;51.090;-1.786;2023-06-26T00:29:15;101972.28;;;13.67;100.00
53262;BME280;39658;51.090;-1.786;2023-06-26T00:31:43;101919.66;;;13.61;100.00
53262;BME280;39658;51.090;-1.786;2023-06-26T00:34:10;101906.41;;;13.61;100.00
53262;BME280;39658;51.090;-1.786;2023-06-26T00:36:37;101887.94;;;13.59;100.00
53262;BME280;39658;51.090;-1.786;2023-06-26T00:39:03;101882.75;;;13.58;100.00
53262;BME280;39658;51.090;-1.786;2023-06-26T00:41:30;101885.97;;;13.63;100.00
53262;BME280;39658;51.090;-1.786;2023-06-26T00:43:57;101876.50;;;13.59;100.00
53262;BME280;39658;51.090;-1.786;2023-06-26T00:46:24;101882.75;;;13.58;100.00
53262;BME280;39658;51.090;-1.786;2023-06-26T00:48:52;101887.28;;;13.56;100.00
53262;BME280;39658;51.090;-1.786;2023-06-26T00:51:20;101886.53;;;13.54;100.00
53262;BME280;39658;51.090;-1.786;2023-06-26T00:53:48;101902.44;;;13.54;100.00
53262;BME280;39658;51.090;-1.786;2023-06-26T00:56:15;101899.03;;;13.52;100.00
53262;BME280;39658;51.090;-1.786;2023-06-26T00:58:44;101903.63;;;13.48;100.00
53262;BME280;39658;51.090;-1.786;2023-06-26T01:01:12;101895.69;;;13.48;100.00
53262;BME280;39658;51.090;-1.786;2023-06-26T01:03:41;101900.06;;;13.49;100.00
53262;BME280;39658;51.090;-1.786;2023-06-26T01:06:11;101900.06;;;13.49;100.00
53262;BME280;39658;51.090;-1.786;2023-06-26T01:08:39;101915.09;;;13.49;100.00
53262;BME280;39658;51.090;-1.786;2023-06-26T01:11:06;101916.22;;;13.44;100.00
53262;BME280;39658;51.090;-1.786;2023-06-26T01:13:33;101908.38;;;13.43;100.00
53262;BME280;39658;51.090;-1.786;2023-06-26T01:16:02;101899.50;;;13.44;100.00
53262;BME280;39658;51.090;-1.786;2023-06-26T01:18:31;101886.59;;;13.38;100.00
53262;BME280;39658;51.090;-1.786;2023-06-26T01:20:59;101865.22;;;13.41;100.00
53262;BME280;39658;51.090;-1.786;2023-06-26T01:26:19;101829.97;;;13.24;100.00
53262;BME280;39658;51.090;-1.786;2023-06-26T01:28:47;101796.94;;;13.16;100.00
53262;BME280;39658;51.090;-1.786;2023-06-26T01:31:15;101778.94;;;13.06;100.00
53262;BME280;39658;51.090;-1.786;2023-06-26T01:33:43;101750.00;;;13.03;100.00
53262;BME280;39658;51.090;-1.786;2023-06-26T01:36:10;101723.72;;;13.00;100.00
53262;BME280;39658;51.090;-1.786;2023-06-26T01:38:37;101681.16;;;13.03;100.00
53262;BME280;39658;51.090;-1.786;2023-06-26T01:41:04;101650.38;;;13.02;100.00
53262;BME280;39658;51.090;-1.786;2023-06-26T01:44:13;101646.56;;;13.06;100.00
53262;BME280;39658;51.090;-1.786;2023-06-26T01:46:48;101631.94;;;13.01;100.00
53262;BME280;39658;51.090;-1.786;2023-06-26T01:49:23;101625.75;;;13.00;100.00
53262;BME280;39658;51.090;-1.786;2023-06-26T01:51:58;101611.97;;;12.95;100.00
53262;BME280;39658;51.090;-1.786;2023-06-26T01:54:30;101587.69;;;12.88;100.00
53262;BME280;39658;51.090;-1.786;2023-06-26T01:57:00;101583.44;;;12.86;100.00
53262;BME280;39658;51.090;-1.786;2023-06-26T01:59:31;101563.09;;;12.86;100.00
53262;BME280;39658;51.090;-1.786;2023-06-26T02:02:00;101551.75;;;12.84;100.00
53262;BME280;39658;51.090;-1.786;2023-06-26T02:04:27;101549.13;;;12.84;100.00
53262;BME280;39658;51.090;-1.786;2023-06-26T02:06:54;101531.63;;;12.82;100.00
53262;BME280;39658;51.090;-1.786;2023-06-26T02:09:21;101522.09;;;12.79;100.00
53262;BME280;39658;51.090;-1.786;2023-06-26T02:11:48;101515.00;;;12.80;100.00
53262;BME280;39658;51.090;-1.786;2023-06-26T02:14:15;101504.41;;;12.80;100.00
53262;BME280;39658;51.090;-1.786;2023-06-26T02:16:43;101506.13;;;12.81;100.00
53262;BME280;39658;51.090;-1.786;2023-06-26T02:19:10;101494.66;;;12.80;100.00
53262;BME280;39658;51.090;-1.786;2023-06-26T02:21:36;101488.72;;;12.77;100.00
53262;BME280;39658;51.090;-1.786;2023-06-26T02:24:04;101480.16;;;12.73;100.00
53262;BME280;39658;51.090;-1.786;2023-06-26T02:26:31;101478.72;;;12.67;100.00
53262;BME280;39658;51.090;-1.786;2023-06-26T02:28:58;101485.19;;;12.63;100.00
53262;BME280;39658;51.090;-1.786;2023-06-26T02:31:25;101475.72;;;12.59;100.00
53262;BME280;39658;51.090;-1.786;2023-06-26T02:33:53;101470.72;;;12.54;100.00
53262;BME280;39658;51.090;-1.786;2023-06-26T02:36:20;101472.63;;;12.52;100.00
53262;BME280;39658;51.090;-1.786;2023-06-26T02:38:46;101474.31;;;12.53;100.00
53262;BME280;39658;51.090;-1.786;2023-06-26T02:41:13;101454.28;;;12.49;100.00
53262;BME280;39658;51.090;-1.786;2023-06-26T02:43:40;101450.97;;;12.46;100.00
53262;BME280;39658;51.090;-1.786;2023-06-26T02:46:07;101455.63;;;12.42;100.00
53262;BME280;39658;51.090;-1.786;2023-06-26T02:48:34;101461.28;;;12.36;100.00
53262;BME280;39658;51.090;-1.786;2023-06-26T02:51:02;101447.50;;;12.31;100.00
53262;BME280;39658;51.090;-1.786;2023-06-26T02:53:29;101441.34;;;12.30;100.00
53262;BME280;39658;51.090;-1.786;2023-06-26T02:55:56;101448.25;;;12.33;100.00
53262;BME280;39658;51.090;-1.786;2023-06-26T02:58:22;101448.44;;;12.30;100.00
53262;BME280;39658;51.090;-1.786;2023-06-26T03:00:49;101452.88;;;12.29;100.00
53262;BME280;39658;51.090;-1.786;2023-06-26T03:03:17;101458.34;;;12.26;100.00
53262;BME280;39658;51.090;-1.786;2023-06-26T03:05:44;101460.22;;;12.24;100.00
53262;BME280;39658;51.090;-1.786;2023-06-26T03:08:12;101459.56;;;12.20;100.00
53262;BME280;39658;51.090;-1.786;2023-06-26T03:10:39;101461.38;;;12.20;100.00
53262;BME280;39658;51.090;-1.786;2023-06-26T03:13:05;101457.13;;;12.17;100.00
53262;BME280;39658;51.090;-1.786;2023-06-26T03:15:32;101459.94;;;12.14;100.00
53262;BME280;39658;51.090;-1.786;2023-06-26T03:17:59;101458.53;;;12.09;100.00
53262;BME280;39658;51.090;-1.786;2023-06-26T03:20:26;101460.59;;;12.03;100.00
53262;BME280;39658;51.090;-1.786;2023-06-26T03:22:53;101454.66;;;12.00;100.00
53262;BME280;39658;51.090;-1.786;2023-06-26T03:25:21;101446.63;;;12.01;100.00
53262;BME280;39658;51.090;-1.786;2023-06-26T03:27:48;101449.00;;;12.06;100.00
53262;BME280;39658;51.090;-1.786;2023-06-26T03:30:15;101454.28;;;12.06;100.00
53262;BME280;39658;51.090;-1.786;2023-06-26T03:32:42;101447.19;;;12.07;100.00
53262;BME280;39658;51.090;-1.786;2023-06-26T03:35:08;101449.75;;;12.08;100.00
53262;BME280;39658;51.090;-1.786;2023-06-26T03:37:35;101455.88;;;12.09;100.00
53262;BME280;39658;51.090;-1.786;2023-06-26T03:40:02;101450.59;;;12.09;100.00
53262;BME280;39658;51.090;-1.786;2023-06-26T03:42:32;101457.59;;;12.10;100.00
53262;BME280;39658;51.090;-1.786;2023-06-26T03:44:59;101466.25;;;12.12;100.00
53262;BME280;39658;51.090;-1.786;2023-06-26T03:47:25;101469.78;;;12.12;100.00
53262;BME280;39658;51.090;-1.786;2023-06-26T03:49:52;101472.41;;;12.12;100.00
53262;BME280;39658;51.090;-1.786;2023-06-26T03:52:19;101487.41;;;12.12;100.00
53262;BME280;39658;51.090;-1.786;2023-06-26T03:54:46;101477.03;;;12.09;100.00
53262;BME280;39658;51.090;-1.786;2023-06-26T03:57:14;101474.38;;;12.09;100.00
53262;BME280;39658;51.090;-1.786;2023-06-26T03:59:42;101478.25;;;12.03;100.00
53262;BME280;39658;51.090;-1.786;2023-06-26T04:02:09;101484.56;;;12.00;100.00
53262;BME280;39658;51.090;-1.786;2023-06-26T04:04:37;101490.03;;;11.97;100.00
53262;BME280;39658;51.090;-1.786;2023-06-26T04:07:04;101489.38;;;11.94;100.00
53262;BME280;39658;51.090;-1.786;2023-06-26T04:09:31;101491.34;;;11.90;100.00
53262;BME280;39658;51.090;-1.786;2023-06-26T04:11:58;101504.63;;;11.89;100.00
53262;BME280;39658;51.090;-1.786;2023-06-26T04:14:25;101503.00;;;11.86;100.00
53262;BME280;39658;51.090;-1.786;2023-06-26T04:16:53;101485.72;;;11.80;100.00
53262;BME280;39658;51.090;-1.786;2023-06-26T04:19:20;101495.44;;;11.80;100.00
53262;BME280;39658;51.090;-1.786;2023-06-26T04:21:46;101498.00;;;11.81;100.00
53262;BME280;39658;51.090;-1.786;2023-06-26T04:24:13;101501.31;;;11.85;100.00
53262;BME280;39658;51.090;-1.786;2023-06-26T04:26:40;101504.53;;;11.90;100.00
53262;BME280;39658;51.090;-1.786;2023-06-26T04:29:07;101505.38;;;11.91;100.00
53262;BME280;39658;51.090;-1.786;2023-06-26T04:31:34;101509.59;;;11.95;100.00
53262;BME280;39658;51.090;-1.786;2023-06-26T04:34:02;101508.34;;;12.00;100.00
53262;BME280;39658;51.090;-1.786;2023-06-26T04:36:29;101521.13;;;12.08;100.00
53262;BME280;39658;51.090;-1.786;2023-06-26T04:38:58;101521.03;;;12.10;100.00
53262;BME280;39658;51.090;-1.786;2023-06-26T04:41:25;101529.53;;;12.15;100.00
53262;BME280;39658;51.090;-1.786;2023-06-26T04:43:52;101532.75;;;12.20;100.00
53262;BME280;39658;51.090;-1.786;2023-06-26T04:46:19;101533.59;;;12.20;100.00
53262;BME280;39658;51.090;-1.786;2023-06-26T04:48:46;101530.69;;;12.25;100.00
53262;BME280;39658;51.090;-1.786;2023-06-26T04:51:14;101537.50;;;12.29;100.00
53262;BME280;39658;51.090;-1.786;2023-06-26T04:53:41;101544.28;;;12.33;100.00
53262;BME280;39658;51.090;-1.786;2023-06-26T04:56:08;101544.19;;;12.35;100.00
53262;BME280;39658;51.090;-1.786;2023-06-26T04:58:36;101551.47;;;12.46;100.00
53262;BME280;39658;51.090;-1.786;2023-06-26T05:01:03;101561.78;;;12.50;100.00
53262;BME280;39658;51.090;-1.786;2023-06-26T05:03:32;101561.50;;;12.55;100.00
53262;BME280;39658;51.090;-1.786;2023-06-26T05:06:00;101559.72;;;12.55;100.00
53262;BME280;39658;51.090;-1.786;2023-06-26T05:08:28;101566.41;;;12.61;100.00
53262;BME280;39658;51.090;-1.786;2023-06-26T05:10:55;101574.25;;;12.63;100.00
53262;BME280;39658;51.090;-1.786;2023-06-26T05:13:23;101577.69;;;12.65;100.00
53262;BME280;39658;51.090;-1.786;2023-06-26T05:15:51;101595.81;;;12.71;100.00
53262;BME280;39658;51.090;-1.786;2023-06-26T05:18:18;101593.56;;;12.79;100.00
53262;BME280;39658;51.090;-1.786;2023-06-26T05:20:45;101598.38;;;12.87;100.00
53262;BME280;39658;51.090;-1.786;2023-06-26T05:23:13;101606.41;;;12.85;100.00
53262;BME280;39658;51.090;-1.786;2023-06-26T05:25:41;101605.53;;;12.85;100.00
53262;BME280;39658;51.090;-1.786;2023-06-26T05:28:09;101623.03;;;12.87;100.00
53262;BME280;39658;51.090;-1.786;2023-06-26T05:30:37;101626.53;;;12.88;100.00
53262;BME280;39658;51.090;-1.786;2023-06-26T05:33:05;101631.63;;;12.91;100.00
53262;BME280;39658;51.090;-1.786;2023-06-26T05:35:34;101637.31;;;12.99;100.00
53262;BME280;39658;51.090;-1.786;2023-06-26T05:38:03;101646.56;;;12.92;100.00
53262;BME280;39658;51.090;-1.786;2023-06-26T05:40:30;101649.69;;;12.99;100.00
53262;BME280;39658;51.090;-1.786;2023-06-26T05:42:59;101652.53;;;13.10;100.00
53262;BME280;39658;51.090;-1.786;2023-06-26T05:45:25;101663.41;;;13.20;100.00
53262;BME280;39658;51.090;-1.786;2023-06-26T05:47:52;101663.47;;;13.33;100.00
53262;BME280;39658;51.090;-1.786;2023-06-26T05:50:19;101669.00;;;13.44;100.00
53262;BME280;39658;51.090;-1.786;2023-06-26T05:52:47;101662.19;;;13.40;100.00
53262;BME280;39658;51.090;-1.786;2023-06-26T05:55:14;101670.78;;;13.43;100.00
53262;BME280;39658;51.090;-1.786;2023-06-26T05:57:42;101686.31;;;13.50;100.00
53262;BME280;39658;51.090;-1.786;2023-06-26T06:00:11;101692.16;;;13.55;100.00
53262;BME280;39658;51.090;-1.786;2023-06-26T06:02:38;101695.19;;;13.63;100.00
53262;BME280;39658;51.090;-1.786;2023-06-26T06:05:06;101695.34;;;13.74;100.00
53262;BME280;39658;51.090;-1.786;2023-06-26T06:07:34;101709.13;;;13.94;100.00
53262;BME280;39658;51.090;-1.786;2023-06-26T06:10:01;101725.78;;;13.96;100.00
53262;BME280;39658;51.090;-1.786;2023-06-26T06:12:28;101735.16;;;14.02;100.00
53262;BME280;39658;51.090;-1.786;2023-06-26T06:14:55;101739.00;;;14.10;100.00
53262;BME280;39658;51.090;-1.786;2023-06-26T06:17:24;101763.44;;;14.15;100.00
53262;BME280;39658;51.090;-1.786;2023-06-26T06:19:50;101760.19;;;14.25;100.00
53262;BME280;39658;51.090;-1.786;2023-06-26T06:22:17;101768.16;;;14.25;100.00
53262;BME280;39658;51.090;-1.786;2023-06-26T06:24:44;101779.28;;;14.30;100.00
53262;BME280;39658;51.090;-1.786;2023-06-26T06:27:11;101797.81;;;14.44;100.00
53262;BME280;39658;51.090;-1.786;2023-06-26T06:29:38;101817.22;;;14.45;100.00
53262;BME280;39658;51.090;-1.786;2023-06-26T06:32:06;101820.44;;;14.64;100.00
53262;BME280;39658;51.090;-1.786;2023-06-26T06:34:34;101838.50;;;14.72;100.00
53262;BME280;39658;51.090;-1.786;2023-06-26T06:37:02;101837.69;;;14.84;100.00
53262;BME280;39658;51.090;-1.786;2023-06-26T06:39:28;101836.13;;;14.95;100.00
53262;BME280;39658;51.090;-1.786;2023-06-26T06:41:55;101852.28;;;14.92;100.00
53262;BME280;39658;51.090;-1.786;2023-06-26T06:44:22;101870.47;;;14.98;100.00
53262;BME280;39658;51.090;-1.786;2023-06-26T06:46:49;101881.59;;;14.90;100.00
53262;BME280;39658;51.090;-1.786;2023-06-26T06:49:16;101876.22;;;14.77;100.00
53262;BME280;39658;51.090;-1.786;2023-06-26T06:51:44;101864.41;;;14.68;100.00
53262;BME280;39658;51.090;-1.786;2023-06-26T06:54:11;101864.09;;;14.73;100.00
53262;BME280;39658;51.090;-1.786;2023-06-26T06:56:37;101859.06;;;14.96;100.00
53262;BME280;39658;51.090;-1.786;2023-06-26T06:59:04;101874.31;;;15.19;100.00
53262;BME280;39658;51.090;-1.786;2023-06-26T07:01:31;101893.91;;;15.44;100.00
53262;BME280;39658;51.090;-1.786;2023-06-26T07:03:58;101908.59;;;15.62;100.00
53262;BME280;39658;51.090;-1.786;2023-06-26T07:06:25;101946.69;;;15.76;100.00
53262;BME280;39658;51.090;-1.786;2023-06-26T07:08:53;101978.22;;;15.95;100.00
53262;BME280;39658;51.090;-1.786;2023-06-26T07:11:20;102003.25;;;16.18;100.00
53262;BME280;39658;51.090;-1.786;2023-06-26T07:13:47;102019.09;;;16.07;100.00
53262;BME280;39658;51.090;-1.786;2023-06-26T07:16:14;102054.84;;;16.03;100.00
53262;BME280;39658;51.090;-1.786;2023-06-26T07:18:40;102057.59;;;16.14;100.00
53262;BME280;39658;51.090;-1.786;2023-06-26T07:21:08;102056.03;;;16.24;100.00
53262;BME280;39658;51.090;-1.786;2023-06-26T07:23:35;102055.28;;;16.48;100.00
53262;BME280;39658;51.090;-1.786;2023-06-26T07:26:03;102083.59;;;16.62;100.00
53262;BME280;39658;51.090;-1.786;2023-06-26T07:28:30;102104.47;;;16.81;100.00
53262;BME280;39658;51.090;-1.786;2023-06-26T07:30:57;102108.41;;;17.01;100.00
53262;BME280;39658;51.090;-1.786;2023-06-26T07:33:24;102123.31;;;17.16;100.00
53262;BME280;39658;51.090;-1.786;2023-06-26T07:35:51;102167.59;;;17.43;100.00
53262;BME280;39658;51.090;-1.786;2023-06-26T07:38:18;102201.25;;;17.57;100.00
53262;BME280;39658;51.090;-1.786;2023-06-26T07:40:45;102218.75;;;17.61;100.00
53262;BME280;39658;51.090;-1.786;2023-06-26T07:43:13;102243.00;;;17.45;100.00
53262;BME280;39658;51.090;-1.786;2023-06-26T07:45:40;102241.53;;;17.28;100.00
53262;BME280;39658;51.090;-1.786;2023-06-26T07:48:07;102241.94;;;17.35;100.00
53262;BME280;39658;51.090;-1.786;2023-06-26T07:50:34;102251.91;;;17.57;100.00
53262;BME280;39658;51.090;-1.786;2023-06-26T07:53:01;102269.81;;;17.81;100.00
53262;BME280;39658;51.090;-1.786;2023-06-26T07:55:28;102310.69;;;17.55;100.00
53262;BME280;39658;51.090;-1.786;2023-06-26T07:57:54;102328.19;;;17.34;100.00
53262;BME280;39658;51.090;-1.786;2023-06-26T08:00:23;102315.28;;;17.53;100.00
53262;BME280;39658;51.090;-1.786;2023-06-26T08:02:50;102303.66;;;17.93;100.00
53262;BME280;39658;51.090;-1.786;2023-06-26T08:05:17;102334.97;;;18.15;100.00
53262;BME280;39658;51.090;-1.786;2023-06-26T08:07:44;102359.59;;;18.19;100.00
53262;BME280;39658;51.090;-1.786;2023-06-26T08:10:10;102366.66;;;18.57;100.00
53262;BME280;39658;51.090;-1.786;2023-06-26T08:12:37;102381.50;;;18.48;100.00
53262;BME280;39658;51.090;-1.786;2023-06-26T08:15:06;102384.47;;;18.56;100.00
53262;BME280;39658;51.090;-1.786;2023-06-26T08:17:35;102388.09;;;18.79;100.00
53262;BME280;39658;51.090;-1.786;2023-06-26T08:20:02;102396.56;;;18.73;100.00
53262;BME280;39658;51.090;-1.786;2023-06-26T08:22:30;102391.31;;;18.60;100.00
53262;BME280;39658;51.090;-1.786;2023-06-26T08:24:57;102381.56;;;19.08;100.00
53262;BME280;39658;51.090;-1.786;2023-06-26T08:27:23;102406.78;;;19.28;100.00
53262;BME280;39658;51.090;-1.786;2023-06-26T08:29:50;102410.59;;;19.36;100.00
53262;BME280;39658;51.090;-1.786;2023-06-26T08:32:17;102400.97;;;19.34;100.00
53262;BME280;39658;51.090;-1.786;2023-06-26T08:34:45;102413.03;;;19.51;100.00
53262;BME280;39658;51.090;-1.786;2023-06-26T08:37:12;102423.03;;;19.71;100.00
53262;BME280;39658;51.090;-1.786;2023-06-26T08:39:39;102436.38;;;19.84;100.00
53262;BME280;39658;51.090;-1.786;2023-06-26T08:42:06;102436.13;;;19.87;100.00
53262;BME280;39658;51.090;-1.786;2023-06-26T08:44:32;102429.78;;;20.11;100.00
53262;BME280;39658;51.090;-1.786;2023-06-26T08:47:00;102407.63;;;19.98;100.00
53262;BME280;39658;51.090;-1.786;2023-06-26T08:49:31;102133.81;;;19.86;100.00
53262;BME280;39658;51.090;-1.786;2023-06-26T08:52:11;101951.59;;;19.99;100.00
53262;BME280;39658;51.090;-1.786;2023-06-26T08:54:46;101822.97;;;20.10;100.00
53262;BME280;39658;51.090;-1.786;2023-06-26T08:57:18;101770.19;;;20.51;100.00
53262;BME280;39658;51.090;-1.786;2023-06-26T08:59:46;101669.81;;;20.65;100.00
53262;BME280;39658;51.090;-1.786;2023-06-26T09:02:14;101572.00;;;20.32;100.00
53262;BME280;39658;51.090;-1.786;2023-06-26T09:04:41;101426.41;;;20.33;100.00
53262;BME280;39658;51.090;-1.786;2023-06-26T09:07:09;101292.69;;;20.49;100.00
53262;BME280;39658;51.090;-1.786;2023-06-26T09:09:36;101215.63;;;20.07;100.00
53262;BME280;39658;51.090;-1.786;2023-06-26T09:12:03;101151.03;;;20.90;100.00
53262;BME280;39658;51.090;-1.786;2023-06-26T09:14:30;101134.94;;;20.64;100.00
53262;BME280;39658;51.090;-1.786;2023-06-26T09:16:57;101141.78;;;20.40;100.00
53262;BME280;39658;51.090;-1.786;2023-06-26T09:19:24;101099.16;;;20.65;100.00
53262;BME280;39658;51.090;-1.786;2023-06-26T09:21:51;101086.69;;;21.33;100.00
53262;BME280;39658;51.090;-1.786;2023-06-26T09:24:20;101114.88;;;21.37;100.00
53262;BME280;39658;51.090;-1.786;2023-06-26T09:26:49;101119.41;;;21.37;100.00
53262;BME280;39658;51.090;-1.786;2023-06-26T09:29:17;101132.78;;;20.23;100.00
53262;BME280;39658;51.090;-1.786;2023-06-26T09:31:44;101106.03;;;19.87;100.00
53262;BME280;39658;51.090;-1.786;2023-06-26T09:34:11;101077.94;;;20.27;100.00
53262;BME280;39658;51.090;-1.786;2023-06-26T09:36:38;101095.50;;;20.48;100.00
53262;BME280;39658;51.090;-1.786;2023-06-26T09:39:08;101103.13;;;20.43;100.00
53262;BME280;39658;51.090;-1.786;2023-06-26T09:41:37;101113.13;;;20.59;100.00
53262;BME280;39658;51.090;-1.786;2023-06-26T09:44:05;101099.50;;;20.70;100.00
53262;BME280;39658;51.090;-1.786;2023-06-26T09:46:33;101083.28;;;21.14;100.00
53262;BME280;39658;51.090;-1.786;2023-06-26T09:49:02;101093.94;;;21.41;100.00
53262;BME280;39658;51.090;-1.786;2023-06-26T09:51:30;101127.78;;;21.33;100.00
53262;BME280;39658;51.090;-1.786;2023-06-26T09:53:58;101140.63;;;21.22;100.00
53262;BME280;39658;51.090;-1.786;2023-06-26T09:56:25;101127.69;;;21.51;100.00
53262;BME280;39658;51.090;-1.786;2023-06-26T09:58:54;101140.34;;;21.67;100.00
53262;BME280;39658;51.090;-1.786;2023-06-26T10:01:21;101127.41;;;21.79;100.00
53262;BME280;39658;51.090;-1.786;2023-06-26T10:03:48;101138.97;;;21.63;100.00
53262;BME280;39658;51.090;-1.786;2023-06-26T10:06:19;101134.94;;;21.59;100.00
53262;BME280;39658;51.090;-1.786;2023-06-26T10:08:46;101139.19;;;21.36;100.00
53262;BME280;39658;51.090;-1.786;2023-06-26T10:11:16;101118.94;;;21.41;100.00
53262;BME280;39658;51.090;-1.786;2023-06-26T10:13:47;101131.22;;;21.17;100.00
53262;BME280;39658;51.090;-1.786;2023-06-26T10:16:21;101140.47;;;20.89;100.00
53262;BME280;39658;51.090;-1.786;2023-06-26T10:18:53;101128.81;;;20.98;100.00
53262;BME280;39658;51.090;-1.786;2023-06-26T10:21:21;101126.31;;;21.05;100.00
53262;BME280;39658;51.090;-1.786;2023-06-26T10:23:49;101130.81;;;20.96;100.00
53262;BME280;39658;51.090;-1.786;2023-06-26T10:26:21;101122.53;;;20.89;100.00
53262;BME280;39658;51.090;-1.786;2023-06-26T10:28:49;101148.63;;;21.05;100.00
53262;BME280;39658;51.090;-1.786;2023-06-26T10:31:20;101146.09;;;21.04;100.00
53262;BME280;39658;51.090;-1.786;2023-06-26T10:33:48;101160.16;;;21.06;100.00
53262;BME280;39658;51.090;-1.786;2023-06-26T10:36:16;101162.91;;;21.22;100.00
53262;BME280;39658;51.090;-1.786;2023-06-26T10:38:54;101145.16;;;21.21;100.00
53262;BME280;39658;51.090;-1.786;2023-06-26T10:41:22;101148.50;;;21.23;100.00
53262;BME280;39658;51.090;-1.786;2023-06-26T10:43:50;101172.50;;;21.25;100.00
53262;BME280;39658;51.090;-1.786;2023-06-26T10:46:22;101191.25;;;20.90;100.00
53262;BME280;39658;51.090;-1.786;2023-06-26T10:48:58;101159.38;;;20.87;100.00
53262;BME280;39658;51.090;-1.786;2023-06-26T10:51:26;101149.72;;;20.68;100.00
53262;BME280;39658;51.090;-1.786;2023-06-26T10:53:56;101156.22;;;20.66;100.00
53262;BME280;39658;51.090;-1.786;2023-06-26T10:56:42;101103.38;;;20.50;100.00
53262;BME280;39658;51.090;-1.786;2023-06-26T10:59:17;101079.91;;;20.70;100.00
53262;BME280;39658;51.090;-1.786;2023-06-26T11:01:47;101100.09;;;21.33;100.00
53262;BME280;39658;51.090;-1.786;2023-06-26T11:04:21;101111.19;;;22.05;100.00
53262;BME280;39658;51.090;-1.786;2023-06-26T11:07:14;101146.97;;;22.39;100.00
53262;BME280;39658;51.090;-1.786;2023-06-26T11:09:57;101189.09;;;22.63;100.00
53262;BME280;39658;51.090;-1.786;2023-06-26T11:12:37;101241.66;;;22.49;100.00
53262;BME280;39658;51.090;-1.786;2023-06-26T11:15:08;101245.19;;;22.91;100.00
53262;BME280;39658;51.090;-1.786;2023-06-26T11:17:36;101256.41;;;23.36;100.00
53262;BME280;39658;51.090;-1.786;2023-06-26T11:20:05;101273.75;;;23.08;100.00
53262;BME280;39658;51.090;-1.786;2023-06-26T11:22:35;101298.59;;;22.45;100.00
53262;BME280;39658;51.090;-1.786;2023-06-26T11:25:03;101285.00;;;22.63;100.00
53262;BME280;39658;51.090;-1.786;2023-06-26T11:27:32;101308.97;;;22.31;100.00
53262;BME280;39658;51.090;-1.786;2023-06-26T11:29:59;101291.72;;;22.58;100.00
53262;BME280;39658;51.090;-1.786;2023-06-26T11:32:26;101312.97;;;22.27;100.00
53262;BME280;39658;51.090;-1.786;2023-06-26T11:34:55;101312.53;;;21.97;100.00
53262;BME280;39658;51.090;-1.786;2023-06-26T11:37:22;101310.03;;;22.04;100.00
53262;BME280;39658;51.090;-1.786;2023-06-26T11:39:49;101269.38;;;21.91;100.00
53262;BME280;39658;51.090;-1.786;2023-06-26T11:42:16;101250.75;;;21.89;100.00
53262;BME280;39658;51.090;-1.786;2023-06-26T11:44:44;101273.75;;;22.43;100.00
53262;BME280;39658;51.090;-1.786;2023-06-26T11:47:14;101268.53;;;22.49;100.00
53262;BME280;39658;51.090;-1.786;2023-06-26T11:49:42;101253.09;;;22.51;100.00
53262;BME280;39658;51.090;-1.786;2023-06-26T11:52:11;101253.41;;;23.06;100.00
53262;BME280;39658;51.090;-1.786;2023-06-26T11:54:39;101283.16;;;22.88;100.00
53262;BME280;39658;51.090;-1.786;2023-06-26T11:57:06;101298.97;;;22.83;100.00
53262;BME280;39658;51.090;-1.786;2023-06-26T11:59:34;101284.66;;;22.49;100.00
53262;BME280;39658;51.090;-1.786;2023-06-26T12:02:05;101269.06;;;22.53;100.00
53262;BME280;39658;51.090;-1.786;2023-06-26T12:04:33;101237.63;;;22.86;100.00
53262;BME280;39658;51.090;-1.786;2023-06-26T12:07:01;101261.50;;;22.81;100.00
53262;BME280;39658;51.090;-1.786;2023-06-26T12:09:31;101276.63;;;22.74;100.00
53262;BME280;39658;51.090;-1.786;2023-06-26T12:11:59;101289.63;;;22.28;100.00
53262;BME280;39658;51.090;-1.786;2023-06-26T12:14:27;101300.09;;;21.96;100.00
53262;BME280;39658;51.090;-1.786;2023-06-26T12:16:54;101286.19;;;22.52;100.00
53262;BME280;39658;51.090;-1.786;2023-06-26T12:19:24;101298.78;;;23.25;100.00
53262;BME280;39658;51.090;-1.786;2023-06-26T12:21:52;101323.59;;;24.08;100.00
53262;BME280;39658;51.090;-1.786;2023-06-26T12:24:22;101349.13;;;24.60;100.00
53262;BME280;39658;51.090;-1.786;2023-06-26T12:26:53;101358.47;;;24.41;100.00
53262;BME280;39658;51.090;-1.786;2023-06-26T12:29:29;101366.91;;;23.98;94.41
53262;BME280;39658;51.090;-1.786;2023-06-26T12:31:56;101345.81;;;23.46;100.00
53262;BME280;39658;51.090;-1.786;2023-06-26T12:34:27;101343.97;;;22.56;100.00
53262;BME280;39658;51.090;-1.786;2023-06-26T12:37:00;101333.38;;;22.79;100.00
53262;BME280;39658;51.090;-1.786;2023-06-26T12:39:27;101309.53;;;22.92;100.00